Latest Weather Observations for Naracoorte

IDS60801

Issued at 9:35 am CDT Saturday 25 October 2014 (issued every 30 minutes, with the page automatically refreshed every 10 minutes)

About weather observations | Map of weather stations | Latest weather observations for SA | Other Formats
Station Details ID: 026099 Name: NARACOORTE AERODROME Lat: -36.98 Lon: 140.73 Height: 49.72 m
Data from the previous 72 hours. | See also: Recent months at Naracoorte
Date/Time
CDT
Temp
°C
App
Temp
°C
Dew
Point
Rel
Hum
%
Delta-T
°C
Wind Press
QNH
hPa
Press
MSL
hPa
Rain
since 9 am
mm
Dir
 
Spd
km/h
Gust
km/h
Spd
kts
Gust
kts
25/09:30am 14.9 12.5 9.9 72 2.6 S 13 20 7 11 1017.4 1017.3 0.0
25/09:00am 14.5 10.9 9.9 74 2.4 SSE 19 24 10 13 1017.3 1017.2 0.0
25/08:30am 14.8 11.0 9.8 72 2.6 S 20 26 11 14 1017.3 1017.2 0.0
25/08:00am 14.0 10.3 10.0 77 2.1 SSE 20 26 11 14 1017.3 1017.2 0.0
25/07:30am 13.9 10.1 9.9 77 2.1 SSE 20 24 11 13 1017.0 1016.9 0.0
25/07:00am 13.2 10.0 9.8 80 1.7 SSE 17 22 9 12 1016.9 1016.8 0.0
25/06:30am 13.0 10.5 9.6 80 1.7 SE 13 20 7 11 1016.6 1016.6 0.0
25/06:00am 13.1 9.9 9.9 81 1.6 SE 17 20 9 11 1016.4 1016.4 0.0
25/05:30am 13.0 10.1 9.8 81 1.6 SE 15 24 8 13 1016.2 1016.2 0.0
25/05:00am 13.0 10.6 10.0 82 1.5 SE 13 19 7 10 1016.0 1016.0 0.0
25/04:30am 12.8 10.4 10.0 83 1.4 SE 13 17 7 9 1015.7 1015.7 0.0
25/04:00am 13.0 9.4 10.0 82 1.5 SSE 19 24 10 13 1015.6 1015.6 0.0
25/03:30am 13.2 9.1 10.0 81 1.6 SSE 22 28 12 15 1015.5 1015.5 0.0
25/03:00am 13.3 9.6 10.1 81 1.7 SSE 20 26 11 14 1015.7 1015.7 0.0
25/02:30am 13.3 9.8 10.3 82 1.6 SSE 19 26 10 14 1015.9 1015.9 0.0
25/02:00am 12.9 10.6 10.6 86 1.2 SSE 13 19 7 10 1016.1 1016.1 0.0
25/01:30am 12.9 10.7 10.8 87 1.1 SSE 13 17 7 9 1016.3 1016.3 0.0
25/01:00am 12.5 9.9 10.6 88 1.0 SSE 15 19 8 10 1016.4 1016.4 0.0
25/12:30am 12.2 10.3 10.6 90 0.8 SSE 11 15 6 8 1016.7 1016.7 0.0
25/12:00am 11.0 8.5 9.8 92 0.6 SSE 13 17 7 9 1016.6 1016.6 0.0
 
Date/Time
CDT
Temp
°C
App
Temp
°C
Dew
Point
Rel
Hum
%
Delta-T
°C
Wind Press
QNH
hPa
Press
MSL
hPa
Rain
since 9 am
mm
Dir
 
Spd
km/h
Gust
km/h
Spd
kts
Gust
kts
24/11:30pm 11.1 8.8 10.3 95 0.4 SSE 13 17 7 9 1016.7 1016.7 0.0
24/11:00pm 10.4 7.8 9.5 94 0.5 SSE 13 15 7 8 1016.5 1016.5 0.0
24/10:30pm 10.7 7.8 9.6 93 0.6 SSE 15 17 8 9 1016.5 1016.5 0.0
24/10:00pm 10.8 8.3 9.7 93 0.6 SSE 13 13 7 7 1016.4 1016.4 0.0
24/09:30pm 11.5 9.4 9.9 90 0.8 SSE 11 13 6 7 1016.6 1016.6 0.0
24/09:00pm 12.8 10.6 10.7 87 1.1 S 13 17 7 9 1016.2 1016.2 0.0
24/08:30pm 14.2 11.0 11.4 83 1.5 S 19 24 10 13 1015.7 1015.7 0.0
24/08:00pm 15.0 12.7 11.6 80 1.8 SSW 15 20 8 11 1015.2 1015.2 0.0
24/07:30pm 16.9 14.1 11.4 70 3.0 SW 17 22 9 12 1014.7 1014.7 0.0
24/07:00pm 19.0 15.9 12.3 65 3.7 SW 20 28 11 15 1014.4 1014.4 0.0
24/06:30pm 20.2 16.0 12.4 61 4.4 SW 26 32 14 17 1014.0 1014.0 0.0
24/06:00pm 22.4 18.6 12.4 53 5.7 SW 24 32 13 17 1013.4 1013.4 0.0
24/05:30pm 24.4 19.5 9.9 40 8.0 WSW 26 33 14 18 1013.0 1013.0 0.0
24/05:00pm 25.4 20.8 9.7 37 8.6 WSW 24 32 13 17 1012.7 1012.7 0.0
24/04:30pm 26.5 21.7 8.9 33 9.6 W 24 30 13 16 1012.7 1012.7 0.0
24/04:00pm 26.5 22.0 8.5 32 9.8 W 22 30 12 16 1012.6 1012.6 0.0
24/03:30pm 26.6 22.5 8.6 32 9.8 WNW 20 28 11 15 1012.6 1012.6 0.0
24/03:00pm 26.5 21.7 7.5 30 10.1 WNW 22 33 12 18 1012.8 1012.8 0.0
24/02:30pm 25.8 21.0 7.4 31 9.8 W 22 33 12 18 1013.0 1013.0 0.0
24/02:00pm 25.4 20.9 8.4 34 9.2 W 22 33 12 18 1013.4 1013.4 0.0
24/01:30pm 25.1 20.4 9.4 37 8.6 W 24 37 13 20 1013.7 1013.7 0.0
24/01:00pm 24.1 19.3 10.4 42 7.6 W 26 39 14 21 1013.5 1013.5 0.0
24/12:30pm 23.0 19.5 10.8 46 6.8 W 20 30 11 16 1013.7 1013.7 0.0
24/12:00pm 21.5 17.7 11.2 52 5.7 W 22 32 12 17 1014.0 1014.0 0.0
24/11:30am 20.3 17.7 12.0 59 4.6 WNW 17 26 9 14 1014.1 1014.1 0.0
24/11:00am 18.3 15.9 12.5 69 3.2 WNW 17 30 9 16 1014.1 1014.1 0.0
24/10:30am 16.6 13.7 12.4 76 2.3 W 19 28 10 15 1014.6 1014.6 0.0
24/10:00am 15.0 10.3 12.1 83 1.6 WNW 28 33 15 18 1014.9 1014.9 0.0
24/09:30am 14.0 10.4 13.1 94 0.5 NW 24 32 13 17 1014.3 1014.3 0.0
24/09:00am 13.3 10.7 13.1 99 0.1 WNW 19 24 10 13 1013.8 1013.8 0.0
24/08:30am 12.8 10.4 12.6 99 0.1 NW 17 22 9 12 1013.6 1013.6 0.0
24/08:00am 12.2 10.7 12.0 99 0.1 NNW 11 13 6 7 1012.9 1012.9 0.0
24/07:30am 11.4 10.1 11.2 99 0.1 N 9 13 5 7 1012.9 1012.9 0.0
24/07:00am 10.7 9.6 10.5 99 0.1 NNW 7 11 4 6 1012.8 1012.8 0.0
24/06:30am 10.2 7.8 9.9 98 0.2 NNW 13 19 7 10 1012.7 1012.7 0.0
24/06:00am 10.6 8.6 10.3 98 0.2 NW 11 17 6 9 1012.3 1012.3 0.0
24/05:30am 10.9 9.4 10.6 98 0.2 NW 9 11 5 6 1011.9 1011.9 0.0
24/05:00am 10.5 9.3 10.2 98 0.2 N 7 11 4 6 1011.8 1011.8 0.0
24/04:30am 10.0 7.4 9.5 97 0.3 N 13 17 7 9 1011.9 1011.9 0.0
24/04:00am 8.3 7.0 7.7 96 0.3 NNW 4 11 2 6 1011.8 1011.8 0.0
24/03:30am 8.8 8.1 8.4 97 0.2 NNE 2 7 1 4 1011.5 1011.5 0.0
24/03:00am 8.9 8.6 8.5 97 0.2 CALM 0 2 0 1 1012.1 1012.1 0.0
24/02:30am 8.2 7.6 7.6 96 0.3 CALM 0 0 0 0 1012.5 1012.5 0.0
24/02:00am 9.3 9.0 8.7 96 0.3 CALM 0 0 0 0 1012.6 1012.6 0.0
24/01:30am 9.8 8.4 9.0 95 0.4 SE 6 7 3 4 1012.7 1012.7 0.0
24/01:00am 10.8 9.5 9.9 94 0.5 SSE 7 9 4 5 1013.3 1013.3 0.0
24/12:30am 11.6 10.5 10.7 94 0.5 SSE 7 9 4 5 1013.8 1013.8 0.0
24/12:00am 12.2 10.5 11.1 93 0.6 SSE 11 11 6 6 1013.9 1013.9 0.0
 
Date/Time
CDT
Temp
°C
App
Temp
°C
Dew
Point
Rel
Hum
%
Delta-T
°C
Wind Press
QNH
hPa
Press
MSL
hPa
Rain
since 9 am
mm
Dir
 
Spd
km/h
Gust
km/h
Spd
kts
Gust
kts
23/11:30pm 12.5 11.2 11.4 93 0.6 SSE 9 9 5 5 1013.8 1013.8 0.0
23/11:00pm 13.3 11.4 11.9 91 0.8 S 13 17 7 9 1014.0 1014.0 0.0
23/10:30pm 14.3 12.2 12.5 89 1.0 SSE 15 17 8 9 1014.1 1014.1 0.0
23/10:00pm 13.8 12.3 12.0 89 1.0 SSE 11 15 6 8 1014.3 1014.3 0.0
23/09:30pm 14.2 12.4 12.1 87 1.1 S 13 15 7 8 1014.2 1014.2 0.0
23/09:00pm 15.9 14.8 11.9 77 2.2 SSE 9 9 5 5 1013.9 1013.9 0.0
23/08:30pm 17.4 16.3 13.1 76 2.4 SSE 11 11 6 6 1013.9 1013.9 0.0
23/08:00pm 17.6 16.1 13.1 75 2.5 SSE 13 17 7 9 1013.7 1013.7 0.0
23/07:30pm 19.5 17.7 13.4 68 3.5 S 15 17 8 9 1013.5 1013.5 0.0
23/07:00pm 21.3 19.2 13.7 62 4.4 S 17 22 9 12 1013.2 1013.2 0.0
23/06:30pm 23.2 20.6 13.1 53 5.8 SSE 19 24 10 13 1013.2 1013.2 0.0
23/06:00pm 24.7 21.8 12.3 46 7.1 SSE 19 24 10 13 1013.1 1013.1 0.0
23/05:30pm 25.1 22.1 12.0 44 7.5 SSE 19 26 10 14 1013.4 1013.4 0.0
23/05:00pm 26.3 23.3 12.4 42 8.0 S 20 26 11 14 1013.4 1013.4 0.0
23/04:30pm 26.1 23.0 12.2 42 8.0 S 20 26 11 14 1013.4 1013.4 0.0
23/04:00pm 26.2 23.3 12.3 42 8.0 S 19 28 10 15 1013.4 1013.4 0.0
23/03:30pm 25.7 22.5 11.8 42 7.9 S 20 26 11 14 1013.8 1013.8 0.0
23/03:00pm 25.5 23.7 12.0 43 7.7 S 13 20 7 11 1014.1 1014.1 0.0
23/02:30pm 25.7 23.7 11.5 41 8.1 S 13 20 7 11 1014.4 1014.4 0.0
23/02:00pm 24.4 21.7 11.7 45 7.2 SE 17 28 9 15 1014.7 1014.7 0.0
23/01:30pm 23.1 20.1 10.5 45 6.9 SSE 17 24 9 13 1015.0 1015.0 0.0
23/01:00pm 24.1 21.8 11.8 46 7.0 SE 15 26 8 14 1015.5 1015.5 0.0
23/12:30pm 21.8 18.7 10.3 48 6.3 SSE 17 30 9 16 1016.1 1016.1 0.0
23/12:00pm 21.9 18.5 11.3 51 5.9 SSE 20 28 11 15 1016.6 1016.6 0.0
23/11:30am 20.5 16.2 10.9 54 5.3 ESE 24 32 13 17 1017.1 1017.0 0.0
23/11:00am 19.7 15.5 11.2 58 4.7 SE 24 37 13 20 1017.4 1017.3 0.0
23/10:30am 18.8 14.7 11.4 62 4.0 ESE 24 35 13 19 1017.8 1017.8 0.0
23/10:00am 17.8 13.2 11.1 65 3.6 SE 26 32 14 17 1018.2 1018.2 0.0
23/09:30am 16.7 12.0 10.5 67 3.3 SE 26 32 14 17 1018.5 1018.5 0.0
23/09:00am 15.2 10.0 10.4 73 2.5 SE 28 37 15 20 1018.5 1018.5 0.0
23/08:30am 14.5 9.7 10.3 76 2.2 SE 26 33 14 18 1018.7 1018.7 0.0
23/08:00am 14.9 10.6 10.7 76 2.2 SSE 24 32 13 17 1018.6 1018.6 0.0
23/07:30am 13.8 9.4 10.4 80 1.8 SE 24 32 13 17 1018.7 1018.7 0.0
23/07:00am 13.5 8.0 10.5 82 1.6 SE 30 41 16 22 1018.6 1018.6 0.0
23/06:30am 13.4 8.7 10.6 83 1.5 SE 26 35 14 19 1018.5 1018.5 0.0
23/06:00am 13.3 9.0 10.7 84 1.4 SE 24 33 13 18 1018.1 1018.1 0.0
23/05:30am 13.4 8.7 10.8 84 1.4 SE 26 39 14 21 1018.2 1018.2 0.0
23/05:00am 13.4 8.4 10.8 84 1.4 SSE 28 39 15 21 1018.2 1018.2 0.0
23/04:30am 13.4 8.0 10.9 85 1.3 SSE 30 35 16 19 1018.1 1018.1 0.0
23/04:00am 13.4 8.0 10.8 84 1.4 SSE 30 41 16 22 1018.2 1018.2 0.0
23/03:30am 13.5 8.1 10.9 84 1.4 SSE 30 44 16 24 1018.1 1018.1 0.0
23/03:00am 13.5 8.1 10.9 84 1.4 SSE 30 39 16 21 1018.4 1018.4 0.0
23/02:30am 13.5 8.5 11.0 85 1.3 SSE 28 37 15 20 1018.5 1018.5 0.0
23/02:00am 13.5 7.8 11.0 85 1.3 SSE 32 41 17 22 1018.6 1018.6 0.0
23/01:30am 13.5 7.8 11.0 85 1.3 SSE 32 41 17 22 1018.9 1018.9 0.0
23/01:00am 13.5 7.5 10.9 84 1.4 SSE 33 43 18 23 1019.0 1019.0 0.0
23/12:30am 13.7 9.9 11.2 85 1.3 SSE 22 30 12 16 1019.2 1019.2 0.0
23/12:00am 13.3 9.5 11.2 87 1.1 SSE 22 30 12 16 1019.3 1019.3 0.0
 
Date/Time
CDT
Temp
°C
App
Temp
°C
Dew
Point
Rel
Hum
%
Delta-T
°C
Wind Press
QNH
hPa
Press
MSL
hPa
Rain
since 9 am
mm
Dir
 
Spd
km/h
Gust
km/h
Spd
kts
Gust
kts
22/11:30pm 14.0 9.1 11.3 84 1.4 S 28 39 15 21 1019.1 1019.1 0.0
22/11:00pm 14.2 8.6 11.4 83 1.5 SSE 32 43 17 23 1019.2 1019.2 0.0
22/10:30pm 14.2 8.4 11.5 84 1.4 SSE 33 43 18 23 1019.3 1019.3 0.0
22/10:00pm 14.5 9.1 12.2 86 1.3 SSE 32 41 17 22 1019.4 1019.4 0.0
22/09:30pm 14.2 9.1 11.9 86 1.2 SSE 30 39 16 21 1019.3 1019.3 0.0
22/09:00pm 13.8 9.8 11.7 87 1.1 S 24 28 13 15 1019.3 1019.3 0.0
22/08:30pm 14.1 9.3 11.8 86 1.2 S 28 33 15 18 1018.9 1018.9 0.0
22/08:00pm 14.6 9.1 11.9 84 1.5 S 32 41 17 22 1018.5 1018.5 0.0
22/07:30pm 16.5 11.3 12.8 79 2.1 S 32 41 17 22 1017.8 1017.8 0.0
22/07:00pm 18.1 12.8 12.5 70 3.1 S 32 41 17 22 1017.2 1017.1 0.0
22/06:30pm 19.9 14.4 12.4 62 4.2 S 33 43 18 23 1016.6 1016.6 0.0
22/06:00pm 22.0 16.4 13.4 58 5.0 S 35 43 19 23 1016.3 1016.3 0.0
22/05:30pm 23.6 18.1 13.5 53 5.9 S 35 43 19 23 1015.8 1015.8 0.0
22/05:00pm 25.1 19.4 13.0 47 7.0 S 35 43 19 23 1015.5 1015.5 0.0
22/04:30pm 26.3 20.0 12.4 42 8.0 S 37 46 20 25 1015.3 1015.3 0.0
22/04:00pm 29.1 23.7 12.1 35 9.9 SSW 32 41 17 22 1015.1 1015.1 0.0
22/03:30pm 29.7 23.6 10.3 30 11.0 SSW 33 39 18 21 1015.0 1015.0 0.0
22/03:00pm 31.0 25.3 11.9 31 11.2 SSW 33 43 18 23 1015.0 1015.0 0.0
22/02:40pm 32.3 27.6 12.0 29 12.0 SW 28 46 15 25 1014.8 1014.8 0.0
22/02:30pm 32.9 27.7 9.0 23 13.5 SW 26 37 14 20 1014.7 1014.7 0.0
22/02:00pm 33.1 27.6 9.2 23 13.6 SW 28 37 15 20 1014.8 1014.8 0.0
22/01:30pm 34.0 29.7 7.9 20 14.6 W 20 35 11 19 1014.8 1014.8 0.0
22/01:00pm 33.2 28.9 7.2 20 14.3 W 19 26 10 14 1015.2 1015.2 0.0
22/12:30pm 32.9 29.4 7.0 20 14.2 W 15 24 8 13 1015.4 1015.4 0.0
22/12:00pm 31.9 29.4 8.2 23 13.1 WNW 11 19 6 10 1015.7 1015.7 0.0
22/11:30am 29.9 27.8 8.3 26 11.9 W 9 17 5 9 1016.1 1016.1 0.0
22/11:00am 29.5 27.3 8.0 26 11.8 WNW 9 17 5 9 1016.6 1016.6 0.0
22/10:30am 28.8 25.8 7.9 27 11.3 NW 13 17 7 9 1017.2 1017.1 0.0
22/10:00am 28.1 25.9 7.9 28 10.9 N 9 17 5 9 1017.2 1017.1 0.0

Other Formats:

Comma delimited format used in spreadsheet applications
http://www.bom.gov.au/fwo/IDS60801/IDS60801.94820.axf

JavaScript Object Notation format (JSON) in row-major order
http://www.bom.gov.au/fwo/IDS60801/IDS60801.94820.json